Anthony, TX

2:11 AM MDT on October 20, 2014 (GMT -0600)
Santa Teresa | Change Station
CLOSE
Current Station
Personal Weather Station
Location: Santa Teresa, NM
Elevation: 3811 ft
Nearby Weather Stations

Elev 3811 ft 31.87 °N, 106.65 °W | Updated 37 seconds ago

Overcast
Overcast
59.6 °F
Feels Like 59.6 °F
N
5.0
Wind Variable Wind from NW
Gusts 8.0 mph

Today
High -- | Low -- °F
--% Chance of Precip.
Yesterday
High -- | Low -- °F
Precip. -- in
7:13 AM 6:28 PM
Waning Crescent, 12% visible
Pressure 30.11 in
Visibility 10.0 miles
Clouds Few 1000 ft
Mostly Cloudy 7000 ft
Dew Point 55 °F
Humidity 86%
Rainfall 0.00 in
Snow Depth Not available.
UV 0 out of 12
Pollen 5.20 out of 12
Air Quality Not available.
Flu Activity Sporadic
METAR KBIF 200716Z 36006KT 10SM FEW010 BKN070 16/13 A3011 RMK LTG DSNT W-SW $

More Conditions Fewer Conditions

Pressure 30.11 in
Visibility 10.0 miles
Clouds Few 1000 ft
Mostly Cloudy 7000 ft
Dew Point 55 °F
Humidity 86%
Rainfall 0.00 in
Snow Depth Not available.
UV 0 out of 12
Pollen 5.20 out of 12
Air Quality Not available.
Flu Activity Sporadic
METAR KBIF 200716Z 36006KT 10SM FEW010 BKN070 16/13 A3011 RMK LTG DSNT W-SW $

More Conditions Fewer Conditions

Nowcast | as of 1:20 am MDT on October 20, 2014

At 115 am scattered showers and isolated thunderstorms continue moving to the north across portions of West Texas and southern New Mexico around or toward the vicinity of El Paso Texas and Alamogordo...Bluff Springs...Cloudcroft...Weed...Sunland Park and Santa Teresa New Mexico. This activity will produce moderate to brief heavy rainfalls and wind gusts to 30 mph. Some ponding of water is possible...especially around low water crossings.

×

10-Day Weather Forecast

Almanac

Astronomy

Oct. 20, 2014 Rise Set
Actual Time 7:13 AM MDT 6:28 PM MDT
Civil Twilight 6:48 AM MDT 6:53 PM MDT
Nautical Twilight 6:20 AM MDT 7:21 PM MDT
Astronomical Twilight 5:51 AM MDT 7:49 PM MDT
Moon 4:15 AM MDT 4:43 PM MDT
Length of Visible Light 12h 04m
Length of Day
11h 14m
Waning Crescent, 12% of the Moon is Illuminated
Today
Waning Crescent
Oct 23
New
Oct 30
First Quarter
Nov 6
Full
Nov 14
Last Quarter

Today's Extremes

State Highs State Lows

Community

WunderPhotos

Upload Photos

1,763,316 photos uploaded!

Nearby

Snow Depth

Station Depth Elevation
No new snow has been reported.

Earthquake Activity

City Distance Mag. Time & Date
No recent earthquake activity has been reported nearby.
Minimum magnitude displayed is 2.5.

Coastal Water Temperatures

Place Temperature
No Stations Reporting

Nearby Weather Stations